sensor_id;sensor_type;location;lat;lon;timestamp;temperature;humidity
29725;DHT22;16636;48.394;15.468;2023-03-31T00:01:37;10.30;99.90
29725;DHT22;16636;48.394;15.468;2023-03-31T00:04:09;10.30;99.90
29725;DHT22;16636;48.394;15.468;2023-03-31T00:06:38;10.30;99.90
29725;DHT22;16636;48.394;15.468;2023-03-31T00:09:08;10.40;99.90
29725;DHT22;16636;48.394;15.468;2023-03-31T00:11:34;10.50;99.90
29725;DHT22;16636;48.394;15.468;2023-03-31T00:14:00;10.50;99.90
29725;DHT22;16636;48.394;15.468;2023-03-31T00:16:26;10.40;99.90
29725;DHT22;16636;48.394;15.468;2023-03-31T00:18:52;10.40;99.90
29725;DHT22;16636;48.394;15.468;2023-03-31T00:21:22;10.40;99.90
29725;DHT22;16636;48.394;15.468;2023-03-31T00:24:00;10.40;99.90
29725;DHT22;16636;48.394;15.468;2023-03-31T00:26:27;10.50;99.90
29725;DHT22;16636;48.394;15.468;2023-03-31T00:28:53;10.60;99.90
29725;DHT22;16636;48.394;15.468;2023-03-31T00:31:20;10.70;99.90
29725;DHT22;16636;48.394;15.468;2023-03-31T00:33:46;10.70;99.90
29725;DHT22;16636;48.394;15.468;2023-03-31T00:36:12;10.70;99.90
29725;DHT22;16636;48.394;15.468;2023-03-31T00:38:38;10.70;99.90
29725;DHT22;16636;48.394;15.468;2023-03-31T00:41:03;10.70;99.90
29725;DHT22;16636;48.394;15.468;2023-03-31T00:43:32;10.70;99.90
29725;DHT22;16636;48.394;15.468;2023-03-31T00:45:59;10.70;99.90
29725;DHT22;16636;48.394;15.468;2023-03-31T00:48:26;10.90;99.90
29725;DHT22;16636;48.394;15.468;2023-03-31T00:50:53;11.00;99.90
29725;DHT22;16636;48.394;15.468;2023-03-31T00:53:20;11.10;99.90
29725;DHT22;16636;48.394;15.468;2023-03-31T00:55:48;11.10;99.90
29725;DHT22;16636;48.394;15.468;2023-03-31T00:58:15;11.10;99.90
29725;DHT22;16636;48.394;15.468;2023-03-31T01:00:45;11.10;99.90
29725;DHT22;16636;48.394;15.468;2023-03-31T01:03:12;11.10;99.90
29725;DHT22;16636;48.394;15.468;2023-03-31T01:05:45;11.10;99.90
29725;DHT22;16636;48.394;15.468;2023-03-31T01:08:12;11.10;99.90
29725;DHT22;16636;48.394;15.468;2023-03-31T01:10:40;11.10;99.90
29725;DHT22;16636;48.394;15.468;2023-03-31T01:13:10;11.10;99.90
29725;DHT22;16636;48.394;15.468;2023-03-31T01:15:36;11.10;99.90
29725;DHT22;16636;48.394;15.468;2023-03-31T01:18:03;11.00;99.90
29725;DHT22;16636;48.394;15.468;2023-03-31T01:29:28;10.90;99.90
29725;DHT22;16636;48.394;15.468;2023-03-31T01:43:02;10.50;99.90
29725;DHT22;16636;48.394;15.468;2023-03-31T01:45:18;10.50;99.90
29725;DHT22;16636;48.394;15.468;2023-03-31T01:50:25;10.60;99.90
29725;DHT22;16636;48.394;15.468;2023-03-31T01:55:41;10.60;99.90
29725;DHT22;16636;48.394;15.468;2023-03-31T01:58:29;10.50;99.90
29725;DHT22;16636;48.394;15.468;2023-03-31T02:00:59;10.50;99.90
29725;DHT22;16636;48.394;15.468;2023-03-31T02:03:32;10.40;99.90
29725;DHT22;16636;48.394;15.468;2023-03-31T02:05:59;10.30;99.90
29725;DHT22;16636;48.394;15.468;2023-03-31T02:08:32;10.20;99.90
29725;DHT22;16636;48.394;15.468;2023-03-31T02:11:00;10.20;99.90
29725;DHT22;16636;48.394;15.468;2023-03-31T02:13:26;10.20;99.90
29725;DHT22;16636;48.394;15.468;2023-03-31T02:15:54;10.20;99.90
29725;DHT22;16636;48.394;15.468;2023-03-31T02:18:24;10.20;99.90
29725;DHT22;16636;48.394;15.468;2023-03-31T02:20:51;10.20;99.90
29725;DHT22;16636;48.394;15.468;2023-03-31T02:23:19;10.10;99.90
29725;DHT22;16636;48.394;15.468;2023-03-31T02:25:49;10.00;99.90
29725;DHT22;16636;48.394;15.468;2023-03-31T02:28:24;10.00;99.90
29725;DHT22;16636;48.394;15.468;2023-03-31T02:33:20;9.80;99.90
29725;DHT22;16636;48.394;15.468;2023-03-31T02:35:46;9.80;99.90
29725;DHT22;16636;48.394;15.468;2023-03-31T02:38:12;9.70;99.90
29725;DHT22;16636;48.394;15.468;2023-03-31T02:40:38;9.60;99.90
29725;DHT22;16636;48.394;15.468;2023-03-31T02:43:05;9.50;99.90
29725;DHT22;16636;48.394;15.468;2023-03-31T02:45:36;9.40;99.90
29725;DHT22;16636;48.394;15.468;2023-03-31T02:48:04;9.40;99.90
29725;DHT22;16636;48.394;15.468;2023-03-31T02:50:39;9.40;99.90
29725;DHT22;16636;48.394;15.468;2023-03-31T02:53:09;9.30;99.90
29725;DHT22;16636;48.394;15.468;2023-03-31T02:55:41;9.30;99.90
29725;DHT22;16636;48.394;15.468;2023-03-31T02:58:15;9.20;99.90
29725;DHT22;16636;48.394;15.468;2023-03-31T03:01:10;9.20;99.90
29725;DHT22;16636;48.394;15.468;2023-03-31T03:11:43;9.00;99.90
29725;DHT22;16636;48.394;15.468;2023-03-31T03:17:31;9.00;99.90
29725;DHT22;16636;48.394;15.468;2023-03-31T03:19:54;9.00;99.90
29725;DHT22;16636;48.394;15.468;2023-03-31T03:22:21;9.00;99.90
29725;DHT22;16636;48.394;15.468;2023-03-31T03:24:47;9.00;99.90
29725;DHT22;16636;48.394;15.468;2023-03-31T03:27:13;8.90;99.90
29725;DHT22;16636;48.394;15.468;2023-03-31T03:29:39;8.80;99.90
29725;DHT22;16636;48.394;15.468;2023-03-31T03:32:06;8.80;99.90
29725;DHT22;16636;48.394;15.468;2023-03-31T03:34:31;8.80;99.90
29725;DHT22;16636;48.394;15.468;2023-03-31T03:36:57;8.80;99.90
29725;DHT22;16636;48.394;15.468;2023-03-31T03:39:23;8.80;99.90
29725;DHT22;16636;48.394;15.468;2023-03-31T03:41:49;8.80;99.90
29725;DHT22;16636;48.394;15.468;2023-03-31T03:44:15;8.80;99.90
29725;DHT22;16636;48.394;15.468;2023-03-31T03:46:41;8.80;99.90
29725;DHT22;16636;48.394;15.468;2023-03-31T03:49:06;8.80;99.90
29725;DHT22;16636;48.394;15.468;2023-03-31T03:51:32;8.80;99.90
29725;DHT22;16636;48.394;15.468;2023-03-31T03:53:58;8.80;99.90
29725;DHT22;16636;48.394;15.468;2023-03-31T03:56:24;8.70;99.90
29725;DHT22;16636;48.394;15.468;2023-03-31T03:58:50;8.70;99.90
29725;DHT22;16636;48.394;15.468;2023-03-31T04:01:16;8.70;99.90
29725;DHT22;16636;48.394;15.468;2023-03-31T04:03:43;8.70;99.90
29725;DHT22;16636;48.394;15.468;2023-03-31T04:06:09;8.60;99.90
29725;DHT22;16636;48.394;15.468;2023-03-31T04:08:35;8.70;99.90
29725;DHT22;16636;48.394;15.468;2023-03-31T04:11:01;8.70;99.90
29725;DHT22;16636;48.394;15.468;2023-03-31T04:13:27;8.60;99.90
29725;DHT22;16636;48.394;15.468;2023-03-31T04:15:53;8.60;99.90
29725;DHT22;16636;48.394;15.468;2023-03-31T04:18:19;8.60;99.90
29725;DHT22;16636;48.394;15.468;2023-03-31T04:20:48;8.50;99.90
29725;DHT22;16636;48.394;15.468;2023-03-31T04:23:20;8.50;99.90
29725;DHT22;16636;48.394;15.468;2023-03-31T04:25:49;8.50;99.90
29725;DHT22;16636;48.394;15.468;2023-03-31T04:28:15;8.40;99.90
29725;DHT22;16636;48.394;15.468;2023-03-31T04:30:40;8.40;99.90
29725;DHT22;16636;48.394;15.468;2023-03-31T04:33:06;8.40;99.90
29725;DHT22;16636;48.394;15.468;2023-03-31T04:35:32;8.40;99.90
29725;DHT22;16636;48.394;15.468;2023-03-31T04:38:23;8.40;99.90
29725;DHT22;16636;48.394;15.468;2023-03-31T04:40:52;8.40;99.90
29725;DHT22;16636;48.394;15.468;2023-03-31T04:43:18;8.40;99.90
29725;DHT22;16636;48.394;15.468;2023-03-31T04:45:45;8.40;99.90
29725;DHT22;16636;48.394;15.468;2023-03-31T04:48:11;8.40;99.90
29725;DHT22;16636;48.394;15.468;2023-03-31T04:50:37;8.40;99.90
29725;DHT22;16636;48.394;15.468;2023-03-31T04:53:03;8.40;99.90
29725;DHT22;16636;48.394;15.468;2023-03-31T04:55:30;8.40;99.90
29725;DHT22;16636;48.394;15.468;2023-03-31T04:57:56;8.40;99.90
29725;DHT22;16636;48.394;15.468;2023-03-31T05:00:22;8.40;99.90
29725;DHT22;16636;48.394;15.468;2023-03-31T05:02:47;8.30;99.90
29725;DHT22;16636;48.394;15.468;2023-03-31T05:05:13;8.30;99.90
29725;DHT22;16636;48.394;15.468;2023-03-31T05:07:40;8.30;99.90
29725;DHT22;16636;48.394;15.468;2023-03-31T05:10:06;8.20;99.90
29725;DHT22;16636;48.394;15.468;2023-03-31T05:12:35;8.30;99.90
29725;DHT22;16636;48.394;15.468;2023-03-31T05:15:02;8.30;99.90
29725;DHT22;16636;48.394;15.468;2023-03-31T05:17:30;8.20;99.90
29725;DHT22;16636;48.394;15.468;2023-03-31T05:19:56;8.30;99.90
29725;DHT22;16636;48.394;15.468;2023-03-31T05:22:21;8.30;99.90
29725;DHT22;16636;48.394;15.468;2023-03-31T05:24:47;8.30;99.90
29725;DHT22;16636;48.394;15.468;2023-03-31T05:27:14;8.30;99.90
29725;DHT22;16636;48.394;15.468;2023-03-31T05:29:40;8.30;99.90
29725;DHT22;16636;48.394;15.468;2023-03-31T05:32:06;8.30;99.90
29725;DHT22;16636;48.394;15.468;2023-03-31T05:34:32;8.40;99.90
29725;DHT22;16636;48.394;15.468;2023-03-31T05:36:57;8.50;99.90
29725;DHT22;16636;48.394;15.468;2023-03-31T05:39:23;8.50;99.90
29725;DHT22;16636;48.394;15.468;2023-03-31T05:41:49;8.50;99.90
29725;DHT22;16636;48.394;15.468;2023-03-31T05:44:15;8.60;99.90
29725;DHT22;16636;48.394;15.468;2023-03-31T05:46:41;8.60;99.90
29725;DHT22;16636;48.394;15.468;2023-03-31T05:49:07;8.50;99.90
29725;DHT22;16636;48.394;15.468;2023-03-31T05:51:33;8.50;99.90
29725;DHT22;16636;48.394;15.468;2023-03-31T05:53:59;8.50;99.90
29725;DHT22;16636;48.394;15.468;2023-03-31T05:56:25;8.40;99.90
29725;DHT22;16636;48.394;15.468;2023-03-31T05:58:52;8.40;99.90
29725;DHT22;16636;48.394;15.468;2023-03-31T06:01:18;8.40;99.90
29725;DHT22;16636;48.394;15.468;2023-03-31T06:03:48;8.40;99.90
29725;DHT22;16636;48.394;15.468;2023-03-31T06:06:14;8.40;99.90
29725;DHT22;16636;48.394;15.468;2023-03-31T06:08:41;8.40;99.90
29725;DHT22;16636;48.394;15.468;2023-03-31T06:11:07;8.50;99.90
29725;DHT22;16636;48.394;15.468;2023-03-31T06:13:34;8.50;99.90
29725;DHT22;16636;48.394;15.468;2023-03-31T06:16:00;8.50;99.90
29725;DHT22;16636;48.394;15.468;2023-03-31T06:18:27;8.60;99.90
29725;DHT22;16636;48.394;15.468;2023-03-31T06:20:54;8.60;99.90
29725;DHT22;16636;48.394;15.468;2023-03-31T06:23:20;8.70;99.90
29725;DHT22;16636;48.394;15.468;2023-03-31T06:25:46;8.70;99.90
29725;DHT22;16636;48.394;15.468;2023-03-31T06:28:12;8.80;99.90
29725;DHT22;16636;48.394;15.468;2023-03-31T06:30:38;8.80;99.90
29725;DHT22;16636;48.394;15.468;2023-03-31T06:33:04;8.90;99.90
29725;DHT22;16636;48.394;15.468;2023-03-31T06:35:30;9.00;99.90
29725;DHT22;16636;48.394;15.468;2023-03-31T06:37:56;9.10;99.90
29725;DHT22;16636;48.394;15.468;2023-03-31T06:40:22;9.20;99.90
29725;DHT22;16636;48.394;15.468;2023-03-31T06:42:48;9.30;99.90
29725;DHT22;16636;48.394;15.468;2023-03-31T06:45:15;9.30;99.90
29725;DHT22;16636;48.394;15.468;2023-03-31T06:47:41;9.30;99.90
29725;DHT22;16636;48.394;15.468;2023-03-31T06:50:07;9.40;99.90
29725;DHT22;16636;48.394;15.468;2023-03-31T06:52:34;9.40;99.90
29725;DHT22;16636;48.394;15.468;2023-03-31T06:55:00;9.40;99.90
29725;DHT22;16636;48.394;15.468;2023-03-31T06:57:26;9.40;99.90
29725;DHT22;16636;48.394;15.468;2023-03-31T06:59:52;9.40;99.90
29725;DHT22;16636;48.394;15.468;2023-03-31T07:02:18;9.40;99.90
29725;DHT22;16636;48.394;15.468;2023-03-31T07:04:44;9.50;99.90
29725;DHT22;16636;48.394;15.468;2023-03-31T07:07:10;9.50;99.90
29725;DHT22;16636;48.394;15.468;2023-03-31T07:09:36;9.50;99.90
29725;DHT22;16636;48.394;15.468;2023-03-31T07:12:02;9.60;99.90
29725;DHT22;16636;48.394;15.468;2023-03-31T07:14:31;9.60;99.90
29725;DHT22;16636;48.394;15.468;2023-03-31T07:16:57;9.60;99.90
29725;DHT22;16636;48.394;15.468;2023-03-31T07:19:23;9.60;99.90
29725;DHT22;16636;48.394;15.468;2023-03-31T07:21:49;9.60;99.90
29725;DHT22;16636;48.394;15.468;2023-03-31T07:24:15;9.60;99.90
29725;DHT22;16636;48.394;15.468;2023-03-31T07:26:40;9.60;99.90
29725;DHT22;16636;48.394;15.468;2023-03-31T07:29:06;9.70;99.90
29725;DHT22;16636;48.394;15.468;2023-03-31T07:31:32;9.70;99.90
29725;DHT22;16636;48.394;15.468;2023-03-31T07:33:59;9.70;99.90
29725;DHT22;16636;48.394;15.468;2023-03-31T07:36:26;9.70;99.90
29725;DHT22;16636;48.394;15.468;2023-03-31T07:38:52;9.60;99.90
29725;DHT22;16636;48.394;15.468;2023-03-31T07:41:18;9.60;99.90
29725;DHT22;16636;48.394;15.468;2023-03-31T07:43:45;9.60;99.90
29725;DHT22;16636;48.394;15.468;2023-03-31T07:46:18;9.70;99.90
29725;DHT22;16636;48.394;15.468;2023-03-31T07:48:45;9.60;99.90
29725;DHT22;16636;48.394;15.468;2023-03-31T07:51:12;9.70;99.90
29725;DHT22;16636;48.394;15.468;2023-03-31T07:53:38;9.70;99.90
29725;DHT22;16636;48.394;15.468;2023-03-31T07:56:04;9.70;99.90
29725;DHT22;16636;48.394;15.468;2023-03-31T07:58:30;9.70;99.90
29725;DHT22;16636;48.394;15.468;2023-03-31T08:00:56;9.70;99.90
29725;DHT22;16636;48.394;15.468;2023-03-31T08:03:22;9.70;99.90
29725;DHT22;16636;48.394;15.468;2023-03-31T08:05:50;9.80;99.90
29725;DHT22;16636;48.394;15.468;2023-03-31T08:08:16;9.80;99.90
29725;DHT22;16636;48.394;15.468;2023-03-31T08:10:42;9.80;99.90
29725;DHT22;16636;48.394;15.468;2023-03-31T08:13:07;9.80;99.90
29725;DHT22;16636;48.394;15.468;2023-03-31T08:15:33;9.80;99.90
29725;DHT22;16636;48.394;15.468;2023-03-31T08:17:59;9.80;99.90
29725;DHT22;16636;48.394;15.468;2023-03-31T08:20:25;9.80;99.90
29725;DHT22;16636;48.394;15.468;2023-03-31T08:22:51;9.80;99.90
29725;DHT22;16636;48.394;15.468;2023-03-31T08:25:17;9.80;99.90
29725;DHT22;16636;48.394;15.468;2023-03-31T08:27:43;9.80;99.90
29725;DHT22;16636;48.394;15.468;2023-03-31T08:30:09;9.80;99.90
29725;DHT22;16636;48.394;15.468;2023-03-31T08:32:35;9.90;99.90
29725;DHT22;16636;48.394;15.468;2023-03-31T08:35:01;9.90;99.90
29725;DHT22;16636;48.394;15.468;2023-03-31T08:37:27;9.90;99.90
29725;DHT22;16636;48.394;15.468;2023-03-31T08:39:54;9.90;99.90
29725;DHT22;16636;48.394;15.468;2023-03-31T08:42:23;9.90;99.90
29725;DHT22;16636;48.394;15.468;2023-03-31T08:44:54;9.90;99.90
29725;DHT22;16636;48.394;15.468;2023-03-31T08:47:23;9.90;99.90
29725;DHT22;16636;48.394;15.468;2023-03-31T08:49:53;9.90;99.90
29725;DHT22;16636;48.394;15.468;2023-03-31T08:52:22;10.00;99.90
29725;DHT22;16636;48.394;15.468;2023-03-31T08:54:53;10.00;99.90
29725;DHT22;16636;48.394;15.468;2023-03-31T08:57:29;10.00;99.90
29725;DHT22;16636;48.394;15.468;2023-03-31T08:59:56;10.00;99.90
29725;DHT22;16636;48.394;15.468;2023-03-31T09:02:30;10.00;99.90
29725;DHT22;16636;48.394;15.468;2023-03-31T09:12:52;10.10;99.90
29725;DHT22;16636;48.394;15.468;2023-03-31T09:15:25;10.10;99.90
29725;DHT22;16636;48.394;15.468;2023-03-31T09:17:51;10.20;99.90
29725;DHT22;16636;48.394;15.468;2023-03-31T09:22:47;10.20;99.90
29725;DHT22;16636;48.394;15.468;2023-03-31T09:25:15;10.20;99.90
29725;DHT22;16636;48.394;15.468;2023-03-31T09:27:43;10.20;99.90
29725;DHT22;16636;48.394;15.468;2023-03-31T09:30:43;10.20;99.90
29725;DHT22;16636;48.394;15.468;2023-03-31T09:33:12;10.20;99.90
29725;DHT22;16636;48.394;15.468;2023-03-31T09:35:40;10.20;99.90
29725;DHT22;16636;48.394;15.468;2023-03-31T09:38:06;10.20;99.90
29725;DHT22;16636;48.394;15.468;2023-03-31T09:40:33;10.20;99.90
29725;DHT22;16636;48.394;15.468;2023-03-31T09:43:00;10.20;99.90
29725;DHT22;16636;48.394;15.468;2023-03-31T09:45:27;10.20;99.90
29725;DHT22;16636;48.394;15.468;2023-03-31T09:47:56;10.20;99.90
29725;DHT22;16636;48.394;15.468;2023-03-31T09:50:23;10.20;99.90
29725;DHT22;16636;48.394;15.468;2023-03-31T09:52:51;10.20;99.90
29725;DHT22;16636;48.394;15.468;2023-03-31T09:57:43;10.20;99.90
29725;DHT22;16636;48.394;15.468;2023-03-31T10:02:49;10.20;99.90
29725;DHT22;16636;48.394;15.468;2023-03-31T10:07:47;10.20;99.90
29725;DHT22;16636;48.394;15.468;2023-03-31T10:10:30;10.20;99.90
29725;DHT22;16636;48.394;15.468;2023-03-31T10:13:08;10.30;99.90
29725;DHT22;16636;48.394;15.468;2023-03-31T10:15:38;10.30;99.90
29725;DHT22;16636;48.394;15.468;2023-03-31T10:18:04;10.30;99.90
29725;DHT22;16636;48.394;15.468;2023-03-31T10:20:33;10.30;99.90
29725;DHT22;16636;48.394;15.468;2023-03-31T10:23:23;10.30;99.90
29725;DHT22;16636;48.394;15.468;2023-03-31T10:25:47;10.40;99.90
29725;DHT22;16636;48.394;15.468;2023-03-31T10:28:17;10.40;99.90
29725;DHT22;16636;48.394;15.468;2023-03-31T10:30:47;10.40;99.90
29725;DHT22;16636;48.394;15.468;2023-03-31T10:33:15;10.40;99.90
29725;DHT22;16636;48.394;15.468;2023-03-31T10:35:42;10.40;99.90
29725;DHT22;16636;48.394;15.468;2023-03-31T10:38:12;10.50;99.90
29725;DHT22;16636;48.394;15.468;2023-03-31T10:40:39;10.50;99.90
29725;DHT22;16636;48.394;15.468;2023-03-31T10:43:15;10.60;99.90
29725;DHT22;16636;48.394;15.468;2023-03-31T10:45:49;10.70;99.90
29725;DHT22;16636;48.394;15.468;2023-03-31T10:48:23;11.10;99.90
29725;DHT22;16636;48.394;15.468;2023-03-31T10:50:49;11.50;99.90
29725;DHT22;16636;48.394;15.468;2023-03-31T10:53:15;11.70;99.90
29725;DHT22;16636;48.394;15.468;2023-03-31T11:06:09;12.20;99.90
29725;DHT22;16636;48.394;15.468;2023-03-31T11:11:13;12.20;99.90
29725;DHT22;16636;48.394;15.468;2023-03-31T11:16:59;12.60;99.90
29725;DHT22;16636;48.394;15.468;2023-03-31T11:24:50;12.50;99.90
29725;DHT22;16636;48.394;15.468;2023-03-31T11:29:54;12.60;99.90
29725;DHT22;16636;48.394;15.468;2023-03-31T11:42:45;12.80;99.90
29725;DHT22;16636;48.394;15.468;2023-03-31T11:45:17;12.70;99.90
29725;DHT22;16636;48.394;15.468;2023-03-31T11:47:44;12.70;99.90
29725;DHT22;16636;48.394;15.468;2023-03-31T11:50:13;12.70;99.90
29725;DHT22;16636;48.394;15.468;2023-03-31T11:52:41;12.70;99.90
29725;DHT22;16636;48.394;15.468;2023-03-31T11:55:14;12.70;99.90
29725;DHT22;16636;48.394;15.468;2023-03-31T11:57:45;12.80;99.90
29725;DHT22;16636;48.394;15.468;2023-03-31T12:00:19;13.10;99.90
29725;DHT22;16636;48.394;15.468;2023-03-31T12:05:11;13.30;99.90
29725;DHT22;16636;48.394;15.468;2023-03-31T12:12:33;14.30;99.90
29725;DHT22;16636;48.394;15.468;2023-03-31T12:15:18;14.70;99.90
29725;DHT22;16636;48.394;15.468;2023-03-31T12:17:46;15.10;99.90
29725;DHT22;16636;48.394;15.468;2023-03-31T12:20:35;15.40;99.90
29725;DHT22;16636;48.394;15.468;2023-03-31T12:23:02;15.90;99.90
29725;DHT22;16636;48.394;15.468;2023-03-31T12:25:34;16.20;99.90
29725;DHT22;16636;48.394;15.468;2023-03-31T12:28:05;16.40;99.90
29725;DHT22;16636;48.394;15.468;2023-03-31T12:30:35;16.60;99.90
29725;DHT22;16636;48.394;15.468;2023-03-31T12:33:12;16.70;99.90
29725;DHT22;16636;48.394;15.468;2023-03-31T12:38:15;17.00;99.90
29725;DHT22;16636;48.394;15.468;2023-03-31T12:48:51;17.30;99.90
29725;DHT22;16636;48.394;15.468;2023-03-31T12:51:43;17.30;99.90
29725;DHT22;16636;48.394;15.468;2023-03-31T12:59:35;17.20;99.90
29725;DHT22;16636;48.394;15.468;2023-03-31T13:04:39;16.70;99.90
29725;DHT22;16636;48.394;15.468;2023-03-31T13:07:13;16.60;99.90
29725;DHT22;16636;48.394;15.468;2023-03-31T13:09:58;16.60;99.90
29725;DHT22;16636;48.394;15.468;2023-03-31T13:13:05;17.00;99.90
29725;DHT22;16636;48.394;15.468;2023-03-31T13:15:29;17.30;99.90
29725;DHT22;16636;48.394;15.468;2023-03-31T13:18:05;17.10;99.90
29725;DHT22;16636;48.394;15.468;2023-03-31T13:20:35;17.00;99.90
29725;DHT22;16636;48.394;15.468;2023-03-31T13:23:23;16.80;99.90
29725;DHT22;16636;48.394;15.468;2023-03-31T13:25:51;16.70;99.90
29725;DHT22;16636;48.394;15.468;2023-03-31T13:33:33;16.70;99.90
29725;DHT22;16636;48.394;15.468;2023-03-31T13:52:02;16.60;99.90
29725;DHT22;16636;48.394;15.468;2023-03-31T14:10:21;16.20;99.90
29725;DHT22;16636;48.394;15.468;2023-03-31T14:12:47;16.10;99.90
29725;DHT22;16636;48.394;15.468;2023-03-31T14:15:16;16.10;99.90
29725;DHT22;16636;48.394;15.468;2023-03-31T14:17:43;16.00;99.90
29725;DHT22;16636;48.394;15.468;2023-03-31T14:20:26;15.90;99.90
29725;DHT22;16636;48.394;15.468;2023-03-31T14:30:23;15.70;99.90
29725;DHT22;16636;48.394;15.468;2023-03-31T14:38:17;15.70;99.90
29725;DHT22;16636;48.394;15.468;2023-03-31T14:40:48;15.70;99.90
29725;DHT22;16636;48.394;15.468;2023-03-31T14:43:24;15.60;99.90
29725;DHT22;16636;48.394;15.468;2023-03-31T14:46:05;15.40;99.90
29725;DHT22;16636;48.394;15.468;2023-03-31T14:48:42;14.70;99.90
29725;DHT22;16636;48.394;15.468;2023-03-31T14:51:10;13.50;99.90
29725;DHT22;16636;48.394;15.468;2023-03-31T14:53:36;13.00;99.90
29725;DHT22;16636;48.394;15.468;2023-03-31T14:56:06;12.90;99.90
29725;DHT22;16636;48.394;15.468;2023-03-31T14:58:34;12.80;99.90
29725;DHT22;16636;48.394;15.468;2023-03-31T15:01:01;12.70;99.90
29725;DHT22;16636;48.394;15.468;2023-03-31T15:03:28;12.60;99.90
29725;DHT22;16636;48.394;15.468;2023-03-31T15:05:57;12.50;99.90
29725;DHT22;16636;48.394;15.468;2023-03-31T15:08:24;12.30;99.90
29725;DHT22;16636;48.394;15.468;2023-03-31T15:11:00;12.30;99.90
29725;DHT22;16636;48.394;15.468;2023-03-31T15:13:34;12.30;99.90
29725;DHT22;16636;48.394;15.468;2023-03-31T15:18:45;12.30;99.90
29725;DHT22;16636;48.394;15.468;2023-03-31T15:21:20;12.30;99.90
29725;DHT22;16636;48.394;15.468;2023-03-31T15:23:51;12.30;99.90
29725;DHT22;16636;48.394;15.468;2023-03-31T15:26:18;12.20;99.90
29725;DHT22;16636;48.394;15.468;2023-03-31T15:28:50;12.20;99.90
29725;DHT22;16636;48.394;15.468;2023-03-31T15:31:17;12.20;99.90
29725;DHT22;16636;48.394;15.468;2023-03-31T15:33:43;12.20;99.90
29725;DHT22;16636;48.394;15.468;2023-03-31T15:36:11;12.10;99.90
29725;DHT22;16636;48.394;15.468;2023-03-31T15:38:37;12.00;99.90
29725;DHT22;16636;48.394;15.468;2023-03-31T15:41:03;12.00;99.90
29725;DHT22;16636;48.394;15.468;2023-03-31T15:48:54;11.90;99.90
29725;DHT22;16636;48.394;15.468;2023-03-31T15:51:25;11.90;99.90
29725;DHT22;16636;48.394;15.468;2023-03-31T15:53:53;11.80;99.90
29725;DHT22;16636;48.394;15.468;2023-03-31T15:56:29;11.90;99.90
29725;DHT22;16636;48.394;15.468;2023-03-31T15:58:57;11.80;99.90
29725;DHT22;16636;48.394;15.468;2023-03-31T16:01:26;11.80;99.90
29725;DHT22;16636;48.394;15.468;2023-03-31T16:03:54;11.70;99.90
29725;DHT22;16636;48.394;15.468;2023-03-31T16:09:07;11.70;99.90
29725;DHT22;16636;48.394;15.468;2023-03-31T16:14:04;11.70;99.90
29725;DHT22;16636;48.394;15.468;2023-03-31T16:16:31;11.70;99.90
29725;DHT22;16636;48.394;15.468;2023-03-31T16:19:01;11.60;99.90
29725;DHT22;16636;48.394;15.468;2023-03-31T16:21:32;11.60;99.90
29725;DHT22;16636;48.394;15.468;2023-03-31T16:23:59;11.60;99.90
29725;DHT22;16636;48.394;15.468;2023-03-31T16:26:26;11.60;99.90
29725;DHT22;16636;48.394;15.468;2023-03-31T16:28:53;11.70;99.90
29725;DHT22;16636;48.394;15.468;2023-03-31T16:31:35;11.70;99.90
29725;DHT22;16636;48.394;15.468;2023-03-31T16:34:03;11.70;99.90
29725;DHT22;16636;48.394;15.468;2023-03-31T16:36:30;11.70;99.90
29725;DHT22;16636;48.394;15.468;2023-03-31T16:38:55;11.70;99.90
29725;DHT22;16636;48.394;15.468;2023-03-31T16:41:23;11.80;99.90
29725;DHT22;16636;48.394;15.468;2023-03-31T16:43:49;11.80;99.90
29725;DHT22;16636;48.394;15.468;2023-03-31T16:46:19;11.80;99.90
29725;DHT22;16636;48.394;15.468;2023-03-31T16:48:45;11.80;99.90
29725;DHT22;16636;48.394;15.468;2023-03-31T16:51:11;11.90;99.90
29725;DHT22;16636;48.394;15.468;2023-03-31T16:53:38;11.90;99.90
29725;DHT22;16636;48.394;15.468;2023-03-31T16:56:04;11.90;99.90
29725;DHT22;16636;48.394;15.468;2023-03-31T16:58:32;11.90;99.90
29725;DHT22;16636;48.394;15.468;2023-03-31T17:00:58;12.00;99.90
29725;DHT22;16636;48.394;15.468;2023-03-31T17:03:24;12.00;99.90
29725;DHT22;16636;48.394;15.468;2023-03-31T17:05:51;12.00;99.90
29725;DHT22;16636;48.394;15.468;2023-03-31T17:08:20;11.90;99.90
29725;DHT22;16636;48.394;15.468;2023-03-31T17:10:50;11.90;99.90
29725;DHT22;16636;48.394;15.468;2023-03-31T17:13:16;11.80;99.90
29725;DHT22;16636;48.394;15.468;2023-03-31T17:15:42;11.80;99.90
29725;DHT22;16636;48.394;15.468;2023-03-31T17:18:08;11.80;99.90
29725;DHT22;16636;48.394;15.468;2023-03-31T17:20:34;11.80;99.90
29725;DHT22;16636;48.394;15.468;2023-03-31T17:23:00;11.80;99.90
29725;DHT22;16636;48.394;15.468;2023-03-31T17:25:26;11.80;99.90
29725;DHT22;16636;48.394;15.468;2023-03-31T17:27:52;11.80;99.90
29725;DHT22;16636;48.394;15.468;2023-03-31T17:30:20;11.70;99.90
29725;DHT22;16636;48.394;15.468;2023-03-31T17:32:46;11.80;99.90
29725;DHT22;16636;48.394;15.468;2023-03-31T17:35:12;11.70;99.90
29725;DHT22;16636;48.394;15.468;2023-03-31T17:37:45;11.60;99.90
29725;DHT22;16636;48.394;15.468;2023-03-31T17:40:11;11.60;99.90
29725;DHT22;16636;48.394;15.468;2023-03-31T17:42:37;11.60;99.90
29725;DHT22;16636;48.394;15.468;2023-03-31T17:45:03;11.60;99.90
29725;DHT22;16636;48.394;15.468;2023-03-31T17:47:30;11.70;99.90
29725;DHT22;16636;48.394;15.468;2023-03-31T17:49:57;11.60;99.90
29725;DHT22;16636;48.394;15.468;2023-03-31T17:52:23;11.60;99.90
29725;DHT22;16636;48.394;15.468;2023-03-31T17:54:49;11.60;99.90
29725;DHT22;16636;48.394;15.468;2023-03-31T17:57:16;11.60;99.90
29725;DHT22;16636;48.394;15.468;2023-03-31T17:59:42;11.60;99.90
29725;DHT22;16636;48.394;15.468;2023-03-31T18:02:10;11.70;99.90
29725;DHT22;16636;48.394;15.468;2023-03-31T18:04:36;11.60;99.90
29725;DHT22;16636;48.394;15.468;2023-03-31T18:07:02;11.60;99.90
29725;DHT22;16636;48.394;15.468;2023-03-31T18:09:28;11.60;99.90
29725;DHT22;16636;48.394;15.468;2023-03-31T18:11:56;11.50;99.90
29725;DHT22;16636;48.394;15.468;2023-03-31T18:14:23;11.50;99.90
29725;DHT22;16636;48.394;15.468;2023-03-31T18:16:49;11.50;99.90
29725;DHT22;16636;48.394;15.468;2023-03-31T18:19:15;11.60;99.90
29725;DHT22;16636;48.394;15.468;2023-03-31T18:21:41;11.60;99.90
29725;DHT22;16636;48.394;15.468;2023-03-31T18:24:07;11.60;99.90
29725;DHT22;16636;48.394;15.468;2023-03-31T18:26:33;11.60;99.90
29725;DHT22;16636;48.394;15.468;2023-03-31T18:28:59;11.60;99.90
29725;DHT22;16636;48.394;15.468;2023-03-31T18:31:25;11.60;99.90